sensor_id;sensor_type;location;lat;lon;timestamp;P1;P2;P0
64138;PMS5003;50435;43.700;-79.318;2024-02-26T00:02:20;7;7;
64138;PMS5003;50435;43.700;-79.318;2024-02-26T00:04:47;5;5;
64138;PMS5003;50435;43.700;-79.318;2024-02-26T00:07:14;5;5;
64138;PMS5003;50435;43.700;-79.318;2024-02-26T00:09:42;6;5;
64138;PMS5003;50435;43.700;-79.318;2024-02-26T00:12:09;4;4;
64138;PMS5003;50435;43.700;-79.318;2024-02-26T00:14:37;7;6;
64138;PMS5003;50435;43.700;-79.318;2024-02-26T00:17:04;7;7;
64138;PMS5003;50435;43.700;-79.318;2024-02-26T00:19:32;4;4;
64138;PMS5003;50435;43.700;-79.318;2024-02-26T00:22:02;6;6;
64138;PMS5003;50435;43.700;-79.318;2024-02-26T00:24:29;6;6;
64138;PMS5003;50435;43.700;-79.318;2024-02-26T00:26:56;7;7;
64138;PMS5003;50435;43.700;-79.318;2024-02-26T00:29:24;5;5;
64138;PMS5003;50435;43.700;-79.318;2024-02-26T00:31:51;5;5;
64138;PMS5003;50435;43.700;-79.318;2024-02-26T00:34:18;6;6;
64138;PMS5003;50435;43.700;-79.318;2024-02-26T00:36:46;7;6;
64138;PMS5003;50435;43.700;-79.318;2024-02-26T00:39:13;6;6;
64138;PMS5003;50435;43.700;-79.318;2024-02-26T00:41:40;5;5;
64138;PMS5003;50435;43.700;-79.318;2024-02-26T00:44:08;6;6;
64138;PMS5003;50435;43.700;-79.318;2024-02-26T00:46:36;6;6;
64138;PMS5003;50435;43.700;-79.318;2024-02-26T00:49:03;10;6;
64138;PMS5003;50435;43.700;-79.318;2024-02-26T00:51:30;6;6;
64138;PMS5003;50435;43.700;-79.318;2024-02-26T00:53:58;8;8;
64138;PMS5003;50435;43.700;-79.318;2024-02-26T00:56:25;6;6;
64138;PMS5003;50435;43.700;-79.318;2024-02-26T00:58:53;8;7;
64138;PMS5003;50435;43.700;-79.318;2024-02-26T01:01:20;6;6;
64138;PMS5003;50435;43.700;-79.318;2024-02-26T01:03:47;10;7;
64138;PMS5003;50435;43.700;-79.318;2024-02-26T01:06:15;7;6;
64138;PMS5003;50435;43.700;-79.318;2024-02-26T01:08:42;6;6;
64138;PMS5003;50435;43.700;-79.318;2024-02-26T01:11:10;7;7;
64138;PMS5003;50435;43.700;-79.318;2024-02-26T01:13:37;7;6;
64138;PMS5003;50435;43.700;-79.318;2024-02-26T01:16:05;8;8;
64138;PMS5003;50435;43.700;-79.318;2024-02-26T01:18:33;7;6;
64138;PMS5003;50435;43.700;-79.318;2024-02-26T01:21:00;5;5;
64138;PMS5003;50435;43.700;-79.318;2024-02-26T01:23:27;5;5;
64138;PMS5003;50435;43.700;-79.318;2024-02-26T01:25:54;5;5;
64138;PMS5003;50435;43.700;-79.318;2024-02-26T01:28:22;6;6;
64138;PMS5003;50435;43.700;-79.318;2024-02-26T01:30:49;6;6;
64138;PMS5003;50435;43.700;-79.318;2024-02-26T01:33:17;7;6;
64138;PMS5003;50435;43.700;-79.318;2024-02-26T01:35:44;5;5;
64138;PMS5003;50435;43.700;-79.318;2024-02-26T01:38:11;5;5;
64138;PMS5003;50435;43.700;-79.318;2024-02-26T01:40:39;5;5;
64138;PMS5003;50435;43.700;-79.318;2024-02-26T01:43:06;8;8;
64138;PMS5003;50435;43.700;-79.318;2024-02-26T01:45:33;7;6;
64138;PMS5003;50435;43.700;-79.318;2024-02-26T01:48:00;6;6;
64138;PMS5003;50435;43.700;-79.318;2024-02-26T01:50:28;7;7;
64138;PMS5003;50435;43.700;-79.318;2024-02-26T01:52:56;10;7;
64138;PMS5003;50435;43.700;-79.318;2024-02-26T01:55:24;7;7;
64138;PMS5003;50435;43.700;-79.318;2024-02-26T01:57:53;11;8;
64138;PMS5003;50435;43.700;-79.318;2024-02-26T02:00:21;8;8;
64138;PMS5003;50435;43.700;-79.318;2024-02-26T02:02:49;7;7;
64138;PMS5003;50435;43.700;-79.318;2024-02-26T02:05:17;6;6;
64138;PMS5003;50435;43.700;-79.318;2024-02-26T02:07:48;10;8;
64138;PMS5003;50435;43.700;-79.318;2024-02-26T02:10:16;5;5;
64138;PMS5003;50435;43.700;-79.318;2024-02-26T02:12:43;6;6;
64138;PMS5003;50435;43.700;-79.318;2024-02-26T02:15:11;8;7;
64138;PMS5003;50435;43.700;-79.318;2024-02-26T02:17:38;7;6;
64138;PMS5003;50435;43.700;-79.318;2024-02-26T02:20:08;10;10;
64138;PMS5003;50435;43.700;-79.318;2024-02-26T02:22:36;5;5;
64138;PMS5003;50435;43.700;-79.318;2024-02-26T02:25:03;10;7;
64138;PMS5003;50435;43.700;-79.318;2024-02-26T02:27:31;4;4;
64138;PMS5003;50435;43.700;-79.318;2024-02-26T02:29:59;6;5;
64138;PMS5003;50435;43.700;-79.318;2024-02-26T02:32:28;6;6;
64138;PMS5003;50435;43.700;-79.318;2024-02-26T02:34:56;8;8;
64138;PMS5003;50435;43.700;-79.318;2024-02-26T02:37:24;11;7;
64138;PMS5003;50435;43.700;-79.318;2024-02-26T02:39:52;5;5;
64138;PMS5003;50435;43.700;-79.318;2024-02-26T02:42:19;5;5;
64138;PMS5003;50435;43.700;-79.318;2024-02-26T02:44:47;6;6;
64138;PMS5003;50435;43.700;-79.318;2024-02-26T02:47:14;8;6;
64138;PMS5003;50435;43.700;-79.318;2024-02-26T02:49:42;7;6;
64138;PMS5003;50435;43.700;-79.318;2024-02-26T02:52:09;13;11;
64138;PMS5003;50435;43.700;-79.318;2024-02-26T02:54:37;5;5;
64138;PMS5003;50435;43.700;-79.318;2024-02-26T02:57:05;7;7;
64138;PMS5003;50435;43.700;-79.318;2024-02-26T02:59:32;12;7;
64138;PMS5003;50435;43.700;-79.318;2024-02-26T03:02:00;7;7;
64138;PMS5003;50435;43.700;-79.318;2024-02-26T03:04:27;6;6;
64138;PMS5003;50435;43.700;-79.318;2024-02-26T03:06:55;6;6;
64138;PMS5003;50435;43.700;-79.318;2024-02-26T03:09:22;12;7;
64138;PMS5003;50435;43.700;-79.318;2024-02-26T03:11:49;8;7;
64138;PMS5003;50435;43.700;-79.318;2024-02-26T03:14:17;8;7;
64138;PMS5003;50435;43.700;-79.318;2024-02-26T03:16:44;12;11;
64138;PMS5003;50435;43.700;-79.318;2024-02-26T03:19:14;7;7;
64138;PMS5003;50435;43.700;-79.318;2024-02-26T03:21:41;7;7;
64138;PMS5003;50435;43.700;-79.318;2024-02-26T03:24:09;6;6;
64138;PMS5003;50435;43.700;-79.318;2024-02-26T03:26:37;6;6;
64138;PMS5003;50435;43.700;-79.318;2024-02-26T03:29:04;8;7;
64138;PMS5003;50435;43.700;-79.318;2024-02-26T03:31:31;9;7;
64138;PMS5003;50435;43.700;-79.318;2024-02-26T03:33:59;8;7;
64138;PMS5003;50435;43.700;-79.318;2024-02-26T03:36:27;11;9;
64138;PMS5003;50435;43.700;-79.318;2024-02-26T03:38:54;11;11;
64138;PMS5003;50435;43.700;-79.318;2024-02-26T03:41:21;11;8;
64138;PMS5003;50435;43.700;-79.318;2024-02-26T03:43:48;8;7;
64138;PMS5003;50435;43.700;-79.318;2024-02-26T03:46:16;11;7;
64138;PMS5003;50435;43.700;-79.318;2024-02-26T03:48:43;11;11;
64138;PMS5003;50435;43.700;-79.318;2024-02-26T03:51:10;8;8;
64138;PMS5003;50435;43.700;-79.318;2024-02-26T03:53:37;11;9;
64138;PMS5003;50435;43.700;-79.318;2024-02-26T03:56:06;8;8;
64138;PMS5003;50435;43.700;-79.318;2024-02-26T03:58:34;12;12;
64138;PMS5003;50435;43.700;-79.318;2024-02-26T04:01:01;14;11;
64138;PMS5003;50435;43.700;-79.318;2024-02-26T04:03:29;13;12;
64138;PMS5003;50435;43.700;-79.318;2024-02-26T04:05:56;6;6;
64138;PMS5003;50435;43.700;-79.318;2024-02-26T04:08:24;9;9;
64138;PMS5003;50435;43.700;-79.318;2024-02-26T04:10:52;11;11;
64138;PMS5003;50435;43.700;-79.318;2024-02-26T04:13:20;14;11;
64138;PMS5003;50435;43.700;-79.318;2024-02-26T04:15:47;12;11;
64138;PMS5003;50435;43.700;-79.318;2024-02-26T04:18:14;9;9;
64138;PMS5003;50435;43.700;-79.318;2024-02-26T04:20:41;13;10;
64138;PMS5003;50435;43.700;-79.318;2024-02-26T04:23:09;8;8;
64138;PMS5003;50435;43.700;-79.318;2024-02-26T04:25:36;14;14;
64138;PMS5003;50435;43.700;-79.318;2024-02-26T04:28:04;13;13;
64138;PMS5003;50435;43.700;-79.318;2024-02-26T04:30:32;11;11;
64138;PMS5003;50435;43.700;-79.318;2024-02-26T04:33:00;12;12;
64138;PMS5003;50435;43.700;-79.318;2024-02-26T04:35:28;12;11;
64138;PMS5003;50435;43.700;-79.318;2024-02-26T04:37:55;11;11;
64138;PMS5003;50435;43.700;-79.318;2024-02-26T04:40:22;14;12;
64138;PMS5003;50435;43.700;-79.318;2024-02-26T04:42:50;14;14;
64138;PMS5003;50435;43.700;-79.318;2024-02-26T04:45:17;14;12;
64138;PMS5003;50435;43.700;-79.318;2024-02-26T04:47:44;12;11;
64138;PMS5003;50435;43.700;-79.318;2024-02-26T04:50:12;12;11;
64138;PMS5003;50435;43.700;-79.318;2024-02-26T04:52:40;12;12;
64138;PMS5003;50435;43.700;-79.318;2024-02-26T04:55:08;12;11;
64138;PMS5003;50435;43.700;-79.318;2024-02-26T04:57:36;14;12;
64138;PMS5003;50435;43.700;-79.318;2024-02-26T05:00:04;13;12;
64138;PMS5003;50435;43.700;-79.318;2024-02-26T05:02:33;15;14;
64138;PMS5003;50435;43.700;-79.318;2024-02-26T05:05:00;16;13;
64138;PMS5003;50435;43.700;-79.318;2024-02-26T05:07:27;16;11;
64138;PMS5003;50435;43.700;-79.318;2024-02-26T05:09:54;15;14;
64138;PMS5003;50435;43.700;-79.318;2024-02-26T05:12:22;14;11;
64138;PMS5003;50435;43.700;-79.318;2024-02-26T05:14:49;13;13;
64138;PMS5003;50435;43.700;-79.318;2024-02-26T05:17:16;12;12;
64138;PMS5003;50435;43.700;-79.318;2024-02-26T05:19:44;15;13;
64138;PMS5003;50435;43.700;-79.318;2024-02-26T05:22:11;13;12;
64138;PMS5003;50435;43.700;-79.318;2024-02-26T05:24:38;12;12;
64138;PMS5003;50435;43.700;-79.318;2024-02-26T05:27:06;18;16;
64138;PMS5003;50435;43.700;-79.318;2024-02-26T05:29:34;13;13;
64138;PMS5003;50435;43.700;-79.318;2024-02-26T05:32:01;13;12;
64138;PMS5003;50435;43.700;-79.318;2024-02-26T05:34:29;14;14;
64138;PMS5003;50435;43.700;-79.318;2024-02-26T05:36:56;14;12;
64138;PMS5003;50435;43.700;-79.318;2024-02-26T05:39:24;12;11;
64138;PMS5003;50435;43.700;-79.318;2024-02-26T05:41:51;12;12;
64138;PMS5003;50435;43.700;-79.318;2024-02-26T05:44:20;16;14;
64138;PMS5003;50435;43.700;-79.318;2024-02-26T05:46:49;16;15;
64138;PMS5003;50435;43.700;-79.318;2024-02-26T05:49:16;13;13;
64138;PMS5003;50435;43.700;-79.318;2024-02-26T05:51:44;14;13;
64138;PMS5003;50435;43.700;-79.318;2024-02-26T05:54:12;14;14;
64138;PMS5003;50435;43.700;-79.318;2024-02-26T05:56:39;15;15;
64138;PMS5003;50435;43.700;-79.318;2024-02-26T05:59:06;12;12;
64138;PMS5003;50435;43.700;-79.318;2024-02-26T06:01:33;13;12;
64138;PMS5003;50435;43.700;-79.318;2024-02-26T06:04:01;13;13;
64138;PMS5003;50435;43.700;-79.318;2024-02-26T06:06:29;17;15;
64138;PMS5003;50435;43.700;-79.318;2024-02-26T06:08:56;18;14;
64138;PMS5003;50435;43.700;-79.318;2024-02-26T06:11:24;17;17;
64138;PMS5003;50435;43.700;-79.318;2024-02-26T06:13:51;17;17;
64138;PMS5003;50435;43.700;-79.318;2024-02-26T06:16:19;13;13;
64138;PMS5003;50435;43.700;-79.318;2024-02-26T06:18:47;12;12;
64138;PMS5003;50435;43.700;-79.318;2024-02-26T06:21:14;13;12;
64138;PMS5003;50435;43.700;-79.318;2024-02-26T06:23:41;18;14;
64138;PMS5003;50435;43.700;-79.318;2024-02-26T06:26:09;14;13;
64138;PMS5003;50435;43.700;-79.318;2024-02-26T06:28:36;18;17;
64138;PMS5003;50435;43.700;-79.318;2024-02-26T06:31:04;13;13;
64138;PMS5003;50435;43.700;-79.318;2024-02-26T06:33:31;22;19;
64138;PMS5003;50435;43.700;-79.318;2024-02-26T06:35:59;23;22;
64138;PMS5003;50435;43.700;-79.318;2024-02-26T06:38:26;13;13;
64138;PMS5003;50435;43.700;-79.318;2024-02-26T06:40:53;18;18;
64138;PMS5003;50435;43.700;-79.318;2024-02-26T06:43:21;14;14;
64138;PMS5003;50435;43.700;-79.318;2024-02-26T06:45:49;18;16;
64138;PMS5003;50435;43.700;-79.318;2024-02-26T06:48:16;16;14;
64138;PMS5003;50435;43.700;-79.318;2024-02-26T06:50:43;18;17;
64138;PMS5003;50435;43.700;-79.318;2024-02-26T06:53:11;16;13;
64138;PMS5003;50435;43.700;-79.318;2024-02-26T06:55:39;14;13;
64138;PMS5003;50435;43.700;-79.318;2024-02-26T06:58:06;12;12;
64138;PMS5003;50435;43.700;-79.318;2024-02-26T07:00:34;17;17;
64138;PMS5003;50435;43.700;-79.318;2024-02-26T07:03:01;17;17;
64138;PMS5003;50435;43.700;-79.318;2024-02-26T07:05:29;16;16;
64138;PMS5003;50435;43.700;-79.318;2024-02-26T07:07:56;16;14;
64138;PMS5003;50435;43.700;-79.318;2024-02-26T07:10:24;14;14;
64138;PMS5003;50435;43.700;-79.318;2024-02-26T07:12:51;12;12;
64138;PMS5003;50435;43.700;-79.318;2024-02-26T07:15:19;14;12;
64138;PMS5003;50435;43.700;-79.318;2024-02-26T07:17:46;19;16;
64138;PMS5003;50435;43.700;-79.318;2024-02-26T07:20:13;16;16;
64138;PMS5003;50435;43.700;-79.318;2024-02-26T07:22:41;14;14;
64138;PMS5003;50435;43.700;-79.318;2024-02-26T07:25:08;19;18;
64138;PMS5003;50435;43.700;-79.318;2024-02-26T07:27:36;14;14;
64138;PMS5003;50435;43.700;-79.318;2024-02-26T07:30:04;17;17;
64138;PMS5003;50435;43.700;-79.318;2024-02-26T07:32:32;18;17;
64138;PMS5003;50435;43.700;-79.318;2024-02-26T07:35:00;19;17;
64138;PMS5003;50435;43.700;-79.318;2024-02-26T07:37:27;16;16;
64138;PMS5003;50435;43.700;-79.318;2024-02-26T07:39:55;14;13;
64138;PMS5003;50435;43.700;-79.318;2024-02-26T07:42:23;21;19;
64138;PMS5003;50435;43.700;-79.318;2024-02-26T07:44:51;18;18;
64138;PMS5003;50435;43.700;-79.318;2024-02-26T07:47:19;13;13;
64138;PMS5003;50435;43.700;-79.318;2024-02-26T07:49:46;20;18;
64138;PMS5003;50435;43.700;-79.318;2024-02-26T07:52:14;17;14;
64138;PMS5003;50435;43.700;-79.318;2024-02-26T07:54:41;14;14;
64138;PMS5003;50435;43.700;-79.318;2024-02-26T07:57:09;14;14;
64138;PMS5003;50435;43.700;-79.318;2024-02-26T07:59:36;21;19;
64138;PMS5003;50435;43.700;-79.318;2024-02-26T08:02:04;23;20;
64138;PMS5003;50435;43.700;-79.318;2024-02-26T08:04:32;16;14;
64138;PMS5003;50435;43.700;-79.318;2024-02-26T08:06:59;20;20;
64138;PMS5003;50435;43.700;-79.318;2024-02-26T08:09:26;16;16;
64138;PMS5003;50435;43.700;-79.318;2024-02-26T08:11:53;23;18;
64138;PMS5003;50435;43.700;-79.318;2024-02-26T08:14:21;19;18;
64138;PMS5003;50435;43.700;-79.318;2024-02-26T08:16:48;19;17;
64138;PMS5003;50435;43.700;-79.318;2024-02-26T08:19:16;18;15;
64138;PMS5003;50435;43.700;-79.318;2024-02-26T08:21:43;16;16;
64138;PMS5003;50435;43.700;-79.318;2024-02-26T08:24:11;20;16;
64138;PMS5003;50435;43.700;-79.318;2024-02-26T08:26:38;17;17;
64138;PMS5003;50435;43.700;-79.318;2024-02-26T08:29:06;19;18;
64138;PMS5003;50435;43.700;-79.318;2024-02-26T08:31:33;18;18;
64138;PMS5003;50435;43.700;-79.318;2024-02-26T08:34:00;18;18;
64138;PMS5003;50435;43.700;-79.318;2024-02-26T08:36:28;22;19;
64138;PMS5003;50435;43.700;-79.318;2024-02-26T08:38:55;23;19;
64138;PMS5003;50435;43.700;-79.318;2024-02-26T08:41:22;17;17;
64138;PMS5003;50435;43.700;-79.318;2024-02-26T08:43:50;23;23;
64138;PMS5003;50435;43.700;-79.318;2024-02-26T08:46:17;23;19;
64138;PMS5003;50435;43.700;-79.318;2024-02-26T08:48:45;20;19;
64138;PMS5003;50435;43.700;-79.318;2024-02-26T08:51:12;23;19;
64138;PMS5003;50435;43.700;-79.318;2024-02-26T08:53:40;18;18;
64138;PMS5003;50435;43.700;-79.318;2024-02-26T08:56:07;21;18;
64138;PMS5003;50435;43.700;-79.318;2024-02-26T08:58:34;18;18;
64138;PMS5003;50435;43.700;-79.318;2024-02-26T09:01:01;22;20;
64138;PMS5003;50435;43.700;-79.318;2024-02-26T09:03:29;23;20;
64138;PMS5003;50435;43.700;-79.318;2024-02-26T09:05:56;20;20;
64138;PMS5003;50435;43.700;-79.318;2024-02-26T09:08:23;22;19;
64138;PMS5003;50435;43.700;-79.318;2024-02-26T09:10:51;22;19;
64138;PMS5003;50435;43.700;-79.318;2024-02-26T09:13:18;26;22;
64138;PMS5003;50435;43.700;-79.318;2024-02-26T09:15:46;19;19;
64138;PMS5003;50435;43.700;-79.318;2024-02-26T09:18:13;23;22;
64138;PMS5003;50435;43.700;-79.318;2024-02-26T09:20:41;21;21;
64138;PMS5003;50435;43.700;-79.318;2024-02-26T09:23:08;17;17;
64138;PMS5003;50435;43.700;-79.318;2024-02-26T09:25:36;24;21;
64138;PMS5003;50435;43.700;-79.318;2024-02-26T09:28:04;24;17;
64138;PMS5003;50435;43.700;-79.318;2024-02-26T09:30:31;16;16;
64138;PMS5003;50435;43.700;-79.318;2024-02-26T09:32:59;19;17;
64138;PMS5003;50435;43.700;-79.318;2024-02-26T09:35:26;22;21;
64138;PMS5003;50435;43.700;-79.318;2024-02-26T09:37:54;21;19;
64138;PMS5003;50435;43.700;-79.318;2024-02-26T09:40:21;21;21;
64138;PMS5003;50435;43.700;-79.318;2024-02-26T09:42:49;18;18;
64138;PMS5003;50435;43.700;-79.318;2024-02-26T09:45:25;21;17;
64138;PMS5003;50435;43.700;-79.318;2024-02-26T09:47:55;23;23;
64138;PMS5003;50435;43.700;-79.318;2024-02-26T09:50:22;19;19;
64138;PMS5003;50435;43.700;-79.318;2024-02-26T09:52:51;24;22;
64138;PMS5003;50435;43.700;-79.318;2024-02-26T09:55:19;21;19;
64138;PMS5003;50435;43.700;-79.318;2024-02-26T09:57:46;30;23;
64138;PMS5003;50435;43.700;-79.318;2024-02-26T10:00:15;22;21;
64138;PMS5003;50435;43.700;-79.318;2024-02-26T10:02:45;19;19;
64138;PMS5003;50435;43.700;-79.318;2024-02-26T10:05:14;25;22;
64138;PMS5003;50435;43.700;-79.318;2024-02-26T10:07:44;21;20;
64138;PMS5003;50435;43.700;-79.318;2024-02-26T10:10:13;24;24;
64138;PMS5003;50435;43.700;-79.318;2024-02-26T10:12:41;22;22;
64138;PMS5003;50435;43.700;-79.318;2024-02-26T10:15:09;26;24;
64138;PMS5003;50435;43.700;-79.318;2024-02-26T10:17:36;22;20;
64138;PMS5003;50435;43.700;-79.318;2024-02-26T10:20:13;25;25;
64138;PMS5003;50435;43.700;-79.318;2024-02-26T10:22:42;21;21;
64138;PMS5003;50435;43.700;-79.318;2024-02-26T10:25:10;23;23;
64138;PMS5003;50435;43.700;-79.318;2024-02-26T10:27:38;24;21;
64138;PMS5003;50435;43.700;-79.318;2024-02-26T10:30:15;21;21;
64138;PMS5003;50435;43.700;-79.318;2024-02-26T10:32:44;23;23;
64138;PMS5003;50435;43.700;-79.318;2024-02-26T10:35:12;27;22;
64138;PMS5003;50435;43.700;-79.318;2024-02-26T10:37:40;23;22;
64138;PMS5003;50435;43.700;-79.318;2024-02-26T10:40:10;29;24;
64138;PMS5003;50435;43.700;-79.318;2024-02-26T10:42:38;22;22;
64138;PMS5003;50435;43.700;-79.318;2024-02-26T10:45:05;22;21;
64138;PMS5003;50435;43.700;-79.318;2024-02-26T10:47:33;25;24;
64138;PMS5003;50435;43.700;-79.318;2024-02-26T10:50:01;24;24;
64138;PMS5003;50435;43.700;-79.318;2024-02-26T10:52:31;31;27;
64138;PMS5003;50435;43.700;-79.318;2024-02-26T10:55:00;27;23;
64138;PMS5003;50435;43.700;-79.318;2024-02-26T10:57:29;24;22;
64138;PMS5003;50435;43.700;-79.318;2024-02-26T11:00:00;23;23;
64138;PMS5003;50435;43.700;-79.318;2024-02-26T11:02:29;28;28;
64138;PMS5003;50435;43.700;-79.318;2024-02-26T11:04:58;29;24;
64138;PMS5003;50435;43.700;-79.318;2024-02-26T11:07:28;24;24;
64138;PMS5003;50435;43.700;-79.318;2024-02-26T11:09:57;29;24;
64138;PMS5003;50435;43.700;-79.318;2024-02-26T11:12:27;29;27;
64138;PMS5003;50435;43.700;-79.318;2024-02-26T11:14:56;26;22;
64138;PMS5003;50435;43.700;-79.318;2024-02-26T11:17:26;30;27;
64138;PMS5003;50435;43.700;-79.318;2024-02-26T11:19:55;23;22;
64138;PMS5003;50435;43.700;-79.318;2024-02-26T11:22:24;26;23;
64138;PMS5003;50435;43.700;-79.318;2024-02-26T11:24:51;26;24;
64138;PMS5003;50435;43.700;-79.318;2024-02-26T11:27:19;26;26;
64138;PMS5003;50435;43.700;-79.318;2024-02-26T11:29:51;23;22;
64138;PMS5003;50435;43.700;-79.318;2024-02-26T11:32:21;24;23;
64138;PMS5003;50435;43.700;-79.318;2024-02-26T11:34:48;27;24;
64138;PMS5003;50435;43.700;-79.318;2024-02-26T11:37:16;22;22;
64138;PMS5003;50435;43.700;-79.318;2024-02-26T11:39:45;22;22;
64138;PMS5003;50435;43.700;-79.318;2024-02-26T11:42:13;23;20;
64138;PMS5003;50435;43.700;-79.318;2024-02-26T11:44:42;28;23;
64138;PMS5003;50435;43.700;-79.318;2024-02-26T11:47:10;22;22;
64138;PMS5003;50435;43.700;-79.318;2024-02-26T11:49:38;22;21;
64138;PMS5003;50435;43.700;-79.318;2024-02-26T11:52:07;23;22;
64138;PMS5003;50435;43.700;-79.318;2024-02-26T11:54:40;33;28;
64138;PMS5003;50435;43.700;-79.318;2024-02-26T11:57:27;23;22;
64138;PMS5003;50435;43.700;-79.318;2024-02-26T11:59:55;27;24;
64138;PMS5003;50435;43.700;-79.318;2024-02-26T12:02:44;24;20;
64138;PMS5003;50435;43.700;-79.318;2024-02-26T12:05:14;20;17;
64138;PMS5003;50435;43.700;-79.318;2024-02-26T12:07:44;20;20;
64138;PMS5003;50435;43.700;-79.318;2024-02-26T12:10:14;22;21;
64138;PMS5003;50435;43.700;-79.318;2024-02-26T12:12:43;27;23;
64138;PMS5003;50435;43.700;-79.318;2024-02-26T12:15:11;19;17;
64138;PMS5003;50435;43.700;-79.318;2024-02-26T12:17:42;25;20;
64138;PMS5003;50435;43.700;-79.318;2024-02-26T12:20:15;26;22;
64138;PMS5003;50435;43.700;-79.318;2024-02-26T12:22:44;28;25;
64138;PMS5003;50435;43.700;-79.318;2024-02-26T12:25:13;25;20;
64138;PMS5003;50435;43.700;-79.318;2024-02-26T12:27:40;21;19;
64138;PMS5003;50435;43.700;-79.318;2024-02-26T12:30:08;23;21;
64138;PMS5003;50435;43.700;-79.318;2024-02-26T12:32:37;19;15;
64138;PMS5003;50435;43.700;-79.318;2024-02-26T12:35:05;20;20;
64138;PMS5003;50435;43.700;-79.318;2024-02-26T12:37:33;22;19;
64138;PMS5003;50435;43.700;-79.318;2024-02-26T12:40:01;18;18;
64138;PMS5003;50435;43.700;-79.318;2024-02-26T12:42:28;19;17;
64138;PMS5003;50435;43.700;-79.318;2024-02-26T12:44:56;19;16;
64138;PMS5003;50435;43.700;-79.318;2024-02-26T12:47:25;20;20;
64138;PMS5003;50435;43.700;-79.318;2024-02-26T12:49:52;16;15;
64138;PMS5003;50435;43.700;-79.318;2024-02-26T12:52:19;15;14;
64138;PMS5003;50435;43.700;-79.318;2024-02-26T12:54:47;16;16;
64138;PMS5003;50435;43.700;-79.318;2024-02-26T12:57:15;13;13;
64138;PMS5003;50435;43.700;-79.318;2024-02-26T12:59:42;15;13;
64138;PMS5003;50435;43.700;-79.318;2024-02-26T13:02:09;19;17;
64138;PMS5003;50435;43.700;-79.318;2024-02-26T13:04:38;14;14;
64138;PMS5003;50435;43.700;-79.318;2024-02-26T13:07:06;14;14;
64138;PMS5003;50435;43.700;-79.318;2024-02-26T13:09:33;15;15;
64138;PMS5003;50435;43.700;-79.318;2024-02-26T13:12:03;13;13;
64138;PMS5003;50435;43.700;-79.318;2024-02-26T13:14:31;16;15;
64138;PMS5003;50435;43.700;-79.318;2024-02-26T13:16:59;15;14;
64138;PMS5003;50435;43.700;-79.318;2024-02-26T13:19:27;14;13;
64138;PMS5003;50435;43.700;-79.318;2024-02-26T13:21:55;13;11;
64138;PMS5003;50435;43.700;-79.318;2024-02-26T13:24:22;11;11;
64138;PMS5003;50435;43.700;-79.318;2024-02-26T13:26:54;14;10;
64138;PMS5003;50435;43.700;-79.318;2024-02-26T13:29:22;15;10;
64138;PMS5003;50435;43.700;-79.318;2024-02-26T13:31:53;14;11;
64138;PMS5003;50435;43.700;-79.318;2024-02-26T13:34:24;13;13;
64138;PMS5003;50435;43.700;-79.318;2024-02-26T13:36:53;13;10;
64138;PMS5003;50435;43.700;-79.318;2024-02-26T13:39:22;13;13;
64138;PMS5003;50435;43.700;-79.318;2024-02-26T13:41:50;11;11;
64138;PMS5003;50435;43.700;-79.318;2024-02-26T13:44:17;8;8;
64138;PMS5003;50435;43.700;-79.318;2024-02-26T13:46:45;11;11;
64138;PMS5003;50435;43.700;-79.318;2024-02-26T13:49:14;9;9;
64138;PMS5003;50435;43.700;-79.318;2024-02-26T13:51:42;11;10;
64138;PMS5003;50435;43.700;-79.318;2024-02-26T13:54:09;9;8;
64138;PMS5003;50435;43.700;-79.318;2024-02-26T13:56:37;9;9;
64138;PMS5003;50435;43.700;-79.318;2024-02-26T13:59:04;7;7;
64138;PMS5003;50435;43.700;-79.318;2024-02-26T14:01:31;8;8;
64138;PMS5003;50435;43.700;-79.318;2024-02-26T14:03:59;7;7;
64138;PMS5003;50435;43.700;-79.318;2024-02-26T14:06:26;8;8;
64138;PMS5003;50435;43.700;-79.318;2024-02-26T14:08:54;7;7;
64138;PMS5003;50435;43.700;-79.318;2024-02-26T14:11:21;7;7;
64138;PMS5003;50435;43.700;-79.318;2024-02-26T14:13:49;8;8;
64138;PMS5003;50435;43.700;-79.318;2024-02-26T14:16:16;7;5;
64138;PMS5003;50435;43.700;-79.318;2024-02-26T14:18:43;7;7;
64138;PMS5003;50435;43.700;-79.318;2024-02-26T14:21:10;7;7;
64138;PMS5003;50435;43.700;-79.318;2024-02-26T14:23:37;8;8;
64138;PMS5003;50435;43.700;-79.318;2024-02-26T14:26:06;8;7;
64138;PMS5003;50435;43.700;-79.318;2024-02-26T14:28:33;7;7;
64138;PMS5003;50435;43.700;-79.318;2024-02-26T14:31:00;8;6;
64138;PMS5003;50435;43.700;-79.318;2024-02-26T14:33:28;4;4;
64138;PMS5003;50435;43.700;-79.318;2024-02-26T14:35:55;8;8;
64138;PMS5003;50435;43.700;-79.318;2024-02-26T14:38:22;5;5;
64138;PMS5003;50435;43.700;-79.318;2024-02-26T14:40:50;6;6;
64138;PMS5003;50435;43.700;-79.318;2024-02-26T14:43:17;5;5;
64138;PMS5003;50435;43.700;-79.318;2024-02-26T14:45:44;5;5;
64138;PMS5003;50435;43.700;-79.318;2024-02-26T14:48:12;5;5;
64138;PMS5003;50435;43.700;-79.318;2024-02-26T14:50:39;5;4;
64138;PMS5003;50435;43.700;-79.318;2024-02-26T14:53:06;5;5;
64138;PMS5003;50435;43.700;-79.318;2024-02-26T14:55:33;10;10;
64138;PMS5003;50435;43.700;-79.318;2024-02-26T14:58:01;6;5;
64138;PMS5003;50435;43.700;-79.318;2024-02-26T15:00:28;9;6;
64138;PMS5003;50435;43.700;-79.318;2024-02-26T15:02:56;5;4;
64138;PMS5003;50435;43.700;-79.318;2024-02-26T15:05:23;5;5;
64138;PMS5003;50435;43.700;-79.318;2024-02-26T15:07:50;6;4;
64138;PMS5003;50435;43.700;-79.318;2024-02-26T15:10:18;4;4;
64138;PMS5003;50435;43.700;-79.318;2024-02-26T15:12:45;4;4;
64138;PMS5003;50435;43.700;-79.318;2024-02-26T15:15:12;6;6;
64138;PMS5003;50435;43.700;-79.318;2024-02-26T15:17:40;4;4;
64138;PMS5003;50435;43.700;-79.318;2024-02-26T15:20:07;4;4;
64138;PMS5003;50435;43.700;-79.318;2024-02-26T15:22:36;2;2;
64138;PMS5003;50435;43.700;-79.318;2024-02-26T15:25:04;3;3;
64138;PMS5003;50435;43.700;-79.318;2024-02-26T15:27:32;4;3;
64138;PMS5003;50435;43.700;-79.318;2024-02-26T15:30:00;2;2;
64138;PMS5003;50435;43.700;-79.318;2024-02-26T15:32:27;3;3;
64138;PMS5003;50435;43.700;-79.318;2024-02-26T15:34:55;2;2;
64138;PMS5003;50435;43.700;-79.318;2024-02-26T15:37:22;2;2;
64138;PMS5003;50435;43.700;-79.318;2024-02-26T15:39:50;5;5;
64138;PMS5003;50435;43.700;-79.318;2024-02-26T15:42:17;2;2;
64138;PMS5003;50435;43.700;-79.318;2024-02-26T15:44:44;2;2;
64138;PMS5003;50435;43.700;-79.318;2024-02-26T15:47:11;3;3;
64138;PMS5003;50435;43.700;-79.318;2024-02-26T15:49:39;3;3;
64138;PMS5003;50435;43.700;-79.318;2024-02-26T15:52:06;3;3;
64138;PMS5003;50435;43.700;-79.318;2024-02-26T15:54:33;1;1;
64138;PMS5003;50435;43.700;-79.318;2024-02-26T15:57:05;3;3;
64138;PMS5003;50435;43.700;-79.318;2024-02-26T15:59:32;1;1;
64138;PMS5003;50435;43.700;-79.318;2024-02-26T16:01:59;1;1;